Terminal Aerodrome Forecast
Issued by NWS Charleston, WV

Home | Current Version | Previous Version | Text Only | Print | Product List | Glossary On
Versions: 1 2 3 4 5 6 7 8 9 10 11 12 13 14 15 16 17 18 19 20 21 22 23
270
FTUS41 KRLX 221120
TAFCRW
TAF
KCRW 221120Z 2212/2312 22006KT P6SM SCT250
     FM222300 17004KT 6SM SHRA OVC060
     FM230200 18007KT 3SM -SHRA OVC025
     FM230500 19007KT P6SM VCSH BKN035=

USA.gov is the U.S. government's official web portal to all federal, state and local government web resources and services.